PWSweather.com
Personal Weather Stations
Station Observations
UXOLA
Alcoy, AlcoyES

AlcoyAlcoyES

Lat: 38.70299, Lon: -0.48184

Elevation: 1935

Station Type: PCE FWS-20,

http://www.fiestasalcoy.xyz

High Low Average
Temperature 69.8°F21.0°C 42.1°F5.6°C 55.4°F13.0°C
Dew Point 33.6°F0.9°C 17.4°F-8.1°C 23.5°F-4.7°C
Winds 6.9 mph 11.1 kmh Calm Calm 2.0 mph SW3.2 kmh SW
Wind Gusts 10.7 mph17.2 kmh 0.7 mph1.1 kmh 4.0 mph6.4 kmh
Humidity 50% 15% 31%
Pressure 29.68 in1005.1 mb 29.57 in1001.4 mb -
Precipitation 0.00 in0.0 mm - -
Hour Temp Dew Point Humidity Winds Wind Gusts Pressure Precip Precip Rate Daily Precip Total
12:00 AM 57.0°F13.9°C 33.6°F0.9°C 41% 5.4 mph SE8.7 kmh SE 8.3 mph13.4 kmh 29.67 in1004.7 mb 0.00 in0.0 mm 0.00 in0.0 mm 0.00 in0.0 mm
12:15 AM 57.0°F13.9°C 33.6°F0.9°C 41% 5.4 mph SE8.7 kmh SE 8.3 mph13.4 kmh 29.67 in1004.7 mb 0.00 in0.0 mm 0.00 in0.0 mm 0.00 in0.0 mm
12:30 AM 57.0°F13.9°C 33.6°F0.9°C 41% 5.4 mph SE8.7 kmh SE 8.3 mph13.4 kmh 29.67 in1004.7 mb 0.00 in0.0 mm 0.00 in0.0 mm 0.00 in0.0 mm
12:45 AM 50.2°F10.1°C 24.3°F-4.3°C 36% 1.6 mph NNW2.6 kmh NNW 4.5 mph7.2 kmh 29.67 in1004.7 mb 0.00 in0.0 mm 0.00 in0.0 mm 0.00 in0.0 mm
01:00 AM 49.6°F9.8°C 23.8°F-4.6°C 36% Calm Calm 3.1 mph5.0 kmh 29.67 in1004.7 mb 0.00 in0.0 mm 0.00 in0.0 mm 0.00 in0.0 mm
01:30 AM 50.5°F10.3°C 23.2°F-4.9°C 34% 0.7 mph NNW1.1 kmh NNW 4.5 mph7.2 kmh 29.67 in1004.7 mb 0.00 in0.0 mm 0.00 in0.0 mm 0.00 in0.0 mm
01:45 AM 50.0°F10.0°C 23.4°F-4.8°C 35% 0.7 mph NNW1.1 kmh NNW 3.1 mph5.0 kmh 29.67 in1004.7 mb 0.00 in0.0 mm 0.00 in0.0 mm 0.00 in0.0 mm
02:00 AM 49.5°F9.7°C 23.0°F-5.0°C 35% 1.6 mph NE2.6 kmh NE 3.8 mph6.1 kmh 29.67 in1004.7 mb 0.00 in0.0 mm 0.00 in0.0 mm 0.00 in0.0 mm
02:15 AM 49.6°F9.8°C 23.1°F-4.9°C 35% 1.6 mph N2.6 kmh N 3.8 mph6.1 kmh 29.67 in1004.7 mb 0.00 in0.0 mm 0.00 in0.0 mm 0.00 in0.0 mm
02:30 AM 50.5°F10.3°C 22.5°F-5.3°C 33% 3.1 mph NW5.0 kmh NW 3.8 mph6.1 kmh 29.66 in1004.4 mb 0.00 in0.0 mm 0.00 in0.0 mm 0.00 in0.0 mm
02:45 AM 51.4°F10.8°C 22.6°F-5.2°C 32% 1.6 mph N2.6 kmh N 3.8 mph6.1 kmh 29.66 in1004.4 mb 0.00 in0.0 mm 0.00 in0.0 mm 0.00 in0.0 mm
03:00 AM 51.4°F10.8°C 22.6°F-5.2°C 32% 3.1 mph NNW5.0 kmh NNW 4.5 mph7.2 kmh 29.65 in1004.1 mb 0.00 in0.0 mm 0.00 in0.0 mm 0.00 in0.0 mm
03:15 AM 51.6°F10.9°C 22.0°F-5.6°C 31% 0.7 mph WNW1.1 kmh WNW 3.8 mph6.1 kmh 29.65 in1004.1 mb 0.00 in0.0 mm 0.00 in0.0 mm 0.00 in0.0 mm
03:30 AM 50.4°F10.2°C 21.6°F-5.8°C 32% 0.7 mph ESE1.1 kmh ESE 1.6 mph2.6 kmh 29.65 in1004.1 mb 0.00 in0.0 mm 0.00 in0.0 mm 0.00 in0.0 mm
03:45 AM 49.1°F9.5°C 21.3°F-5.9°C 33% Calm Calm 1.6 mph2.6 kmh 29.65 in1004.1 mb 0.00 in0.0 mm 0.00 in0.0 mm 0.00 in0.0 mm
04:00 AM 48.0°F8.9°C 21.0°F-6.1°C 34% 2.2 mph NNW3.5 kmh NNW 3.1 mph5.0 kmh 29.65 in1004.1 mb 0.00 in0.0 mm 0.00 in0.0 mm 0.00 in0.0 mm
04:15 AM 46.8°F8.2°C 20.6°F-6.3°C 35% Calm Calm 3.1 mph5.0 kmh 29.65 in1004.1 mb 0.00 in0.0 mm 0.00 in0.0 mm 0.00 in0.0 mm
04:30 AM 46.0°F7.8°C 21.2°F-6.0°C 37% 0.7 mph NNW1.1 kmh NNW 2.2 mph3.5 kmh 29.65 in1004.1 mb 0.00 in0.0 mm 0.00 in0.0 mm 0.00 in0.0 mm
04:45 AM 45.5°F7.5°C 20.8°F-6.2°C 37% 0.7 mph NNW1.1 kmh NNW 3.1 mph5.0 kmh 29.65 in1004.1 mb 0.00 in0.0 mm 0.00 in0.0 mm 0.00 in0.0 mm
05:00 AM 45.1°F7.3°C 21.1°F-6.1°C 38% 2.2 mph NW3.5 kmh NW 3.1 mph5.0 kmh 29.65 in1004.1 mb 0.00 in0.0 mm 0.00 in0.0 mm 0.00 in0.0 mm
05:15 AM 44.6°F7.0°C 21.2°F-6.0°C 39% Calm Calm 2.2 mph3.5 kmh 29.66 in1004.4 mb 0.00 in0.0 mm 0.00 in0.0 mm 0.00 in0.0 mm
05:30 AM 44.2°F6.8°C 21.5°F-5.8°C 40% 1.6 mph NNW2.6 kmh NNW 2.2 mph3.5 kmh 29.65 in1004.1 mb 0.00 in0.0 mm 0.00 in0.0 mm 0.00 in0.0 mm
05:45 AM 44.1°F6.7°C 21.3°F-5.9°C 40% 0.7 mph N1.1 kmh N 2.2 mph3.5 kmh 29.66 in1004.4 mb 0.00 in0.0 mm 0.00 in0.0 mm 0.00 in0.0 mm
06:00 AM 43.9°F6.6°C 23.9°F-4.5°C 45% Calm Calm 1.6 mph2.6 kmh 29.66 in1004.4 mb 0.00 in0.0 mm 0.00 in0.0 mm 0.00 in0.0 mm
06:15 AM 43.7°F6.5°C 23.8°F-4.6°C 45% 0.7 mph NW1.1 kmh NW 2.2 mph3.5 kmh 29.66 in1004.4 mb 0.00 in0.0 mm 0.00 in0.0 mm 0.00 in0.0 mm
06:30 AM 43.3°F6.3°C 24.0°F-4.4°C 46% 0.7 mph NNW1.1 kmh NNW 2.2 mph3.5 kmh 29.66 in1004.4 mb 0.00 in0.0 mm 0.00 in0.0 mm 0.00 in0.0 mm
06:45 AM 43.5°F6.4°C 24.1°F-4.4°C 46% Calm Calm 1.6 mph2.6 kmh 29.65 in1004.1 mb 0.00 in0.0 mm 0.00 in0.0 mm 0.00 in0.0 mm
07:00 AM 43.2°F6.2°C 24.3°F-4.3°C 47% 0.7 mph NW1.1 kmh NW 1.6 mph2.6 kmh 29.65 in1004.1 mb 0.00 in0.0 mm 0.00 in0.0 mm 0.00 in0.0 mm
07:15 AM 42.6°F5.9°C 24.3°F-4.3°C 48% 1.6 mph NW2.6 kmh NW 3.1 mph5.0 kmh 29.65 in1004.1 mb 0.00 in0.0 mm 0.00 in0.0 mm 0.00 in0.0 mm
07:30 AM 42.6°F5.9°C 23.8°F-4.6°C 47% 0.7 mph WNW1.1 kmh WNW 2.2 mph3.5 kmh 29.66 in1004.4 mb 0.00 in0.0 mm 0.00 in0.0 mm 0.00 in0.0 mm
07:45 AM 42.3°F5.7°C 24.0°F-4.4°C 48% 1.6 mph NW2.6 kmh NW 3.1 mph5.0 kmh 29.65 in1004.1 mb 0.00 in0.0 mm 0.00 in0.0 mm 0.00 in0.0 mm
08:00 AM 42.3°F5.7°C 24.0°F-4.4°C 48% 1.6 mph NW2.6 kmh NW 3.1 mph5.0 kmh 29.65 in1004.1 mb 0.00 in0.0 mm 0.00 in0.0 mm 0.00 in0.0 mm
08:15 AM 42.1°F5.6°C 23.8°F-4.6°C 48% Calm Calm 2.2 mph3.5 kmh 29.66 in1004.4 mb 0.00 in0.0 mm 0.00 in0.0 mm 0.00 in0.0 mm
08:30 AM 42.1°F5.6°C 24.8°F-4.0°C 50% 1.6 mph NW2.6 kmh NW 2.2 mph3.5 kmh 29.67 in1004.7 mb 0.00 in0.0 mm 0.00 in0.0 mm 0.00 in0.0 mm
08:45 AM 43.0°F6.1°C 25.1°F-3.8°C 49% 1.6 mph NW2.6 kmh NW 2.2 mph3.5 kmh 29.67 in1004.7 mb 0.00 in0.0 mm 0.00 in0.0 mm 0.00 in0.0 mm
09:00 AM 44.6°F7.0°C 22.4°F-5.3°C 41% 0.7 mph NW1.1 kmh NW 3.1 mph5.0 kmh 29.67 in1004.7 mb 0.00 in0.0 mm 0.00 in0.0 mm 0.00 in0.0 mm
09:15 AM 46.0°F7.8°C 23.1°F-4.9°C 40% 0.7 mph NNW1.1 kmh NNW 1.6 mph2.6 kmh 29.67 in1004.7 mb 0.00 in0.0 mm 0.00 in0.0 mm 0.00 in0.0 mm
09:30 AM 48.7°F9.3°C 25.5°F-3.6°C 40% 0.7 mph NW1.1 kmh NW 2.2 mph3.5 kmh 29.68 in1005.1 mb 0.00 in0.0 mm 0.00 in0.0 mm 0.00 in0.0 mm
09:45 AM 51.1°F10.6°C 25.7°F-3.5°C 37% 0.7 mph WNW1.1 kmh WNW 3.8 mph6.1 kmh 29.67 in1004.7 mb 0.00 in0.0 mm 0.00 in0.0 mm 0.00 in0.0 mm
10:00 AM 53.6°F12.0°C 24.5°F-4.2°C 32% Calm Calm 1.6 mph2.6 kmh 29.68 in1005.1 mb 0.00 in0.0 mm 0.00 in0.0 mm 0.00 in0.0 mm
10:15 AM 56.1°F13.4°C 25.9°F-3.4°C 31% Calm Calm 1.6 mph2.6 kmh 29.67 in1004.7 mb 0.00 in0.0 mm 0.00 in0.0 mm 0.00 in0.0 mm
10:30 AM 58.8°F14.9°C 27.5°F-2.5°C 30% 2.2 mph SE3.5 kmh SE 3.1 mph5.0 kmh 29.67 in1004.7 mb 0.00 in0.0 mm 0.00 in0.0 mm 0.00 in0.0 mm
10:45 AM 59.9°F15.5°C 28.4°F-2.0°C 30% 2.2 mph SE3.5 kmh SE 3.8 mph6.1 kmh 29.67 in1004.7 mb 0.00 in0.0 mm 0.00 in0.0 mm 0.00 in0.0 mm
11:00 AM 61.0°F16.1°C 27.7°F-2.4°C 28% 3.1 mph SE5.0 kmh SE 4.5 mph7.2 kmh 29.68 in1005.1 mb 0.00 in0.0 mm 0.00 in0.0 mm 0.00 in0.0 mm
11:15 AM 61.7°F16.5°C 26.5°F-3.1°C 26% 1.6 mph SE2.6 kmh SE 3.8 mph6.1 kmh 29.68 in1005.1 mb 0.00 in0.0 mm 0.00 in0.0 mm 0.00 in0.0 mm
11:30 AM 63.0°F17.2°C 23.5°F-4.7°C 22% 3.8 mph SE6.1 kmh SE 5.4 mph8.7 kmh 29.67 in1004.7 mb 0.00 in0.0 mm 0.00 in0.0 mm 0.00 in0.0 mm
11:45 AM 63.9°F17.7°C 24.3°F-4.3°C 22% 2.2 mph SSE3.5 kmh SSE 3.8 mph6.1 kmh 29.67 in1004.7 mb 0.00 in0.0 mm 0.00 in0.0 mm 0.00 in0.0 mm
12:00 PM 64.4°F18.0°C 22.5°F-5.3°C 20% 3.1 mph ESE5.0 kmh ESE 5.4 mph8.7 kmh 29.66 in1004.4 mb 0.00 in0.0 mm 0.00 in0.0 mm 0.00 in0.0 mm
12:15 PM 65.1°F18.4°C 23.1°F-4.9°C 20% 3.8 mph SE6.1 kmh SE 6.0 mph9.7 kmh 29.66 in1004.4 mb 0.00 in0.0 mm 0.00 in0.0 mm 0.00 in0.0 mm
12:30 PM 65.1°F18.4°C 23.1°F-4.9°C 20% 6.0 mph SE9.7 kmh SE 6.9 mph11.1 kmh 29.66 in1004.4 mb 0.00 in0.0 mm 0.00 in0.0 mm 0.00 in0.0 mm
12:45 PM 65.8°F18.8°C 23.7°F-4.6°C 20% 3.8 mph SE6.1 kmh SE 7.6 mph12.2 kmh 29.65 in1004.1 mb 0.00 in0.0 mm 0.00 in0.0 mm 0.00 in0.0 mm
01:00 PM 66.4°F19.1°C 17.4°F-8.1°C 15% 4.5 mph SE7.2 kmh SE 6.9 mph11.1 kmh 29.64 in1003.7 mb 0.00 in0.0 mm 0.00 in0.0 mm 0.00 in0.0 mm
01:15 PM 67.3°F19.6°C 24.9°F-3.9°C 20% 2.2 mph SE3.5 kmh SE 6.9 mph11.1 kmh 29.64 in1003.7 mb 0.00 in0.0 mm 0.00 in0.0 mm 0.00 in0.0 mm
01:30 PM 68.2°F20.1°C 18.8°F-7.3°C 15% 3.8 mph SE6.1 kmh SE 6.9 mph11.1 kmh 29.64 in1003.7 mb 0.00 in0.0 mm 0.00 in0.0 mm 0.00 in0.0 mm
01:45 PM 68.4°F20.2°C 19.0°F-7.2°C 15% 3.1 mph SE5.0 kmh SE 7.6 mph12.2 kmh 29.62 in1003.0 mb 0.00 in0.0 mm 0.00 in0.0 mm 0.00 in0.0 mm
02:00 PM 68.5°F20.3°C 19.1°F-7.2°C 15% 4.5 mph SE7.2 kmh SE 7.6 mph12.2 kmh 29.62 in1003.0 mb 0.00 in0.0 mm 0.00 in0.0 mm 0.00 in0.0 mm
02:15 PM 68.7°F20.4°C 19.2°F-7.1°C 15% 4.5 mph ESE7.2 kmh ESE 7.6 mph12.2 kmh 29.61 in1002.7 mb 0.00 in0.0 mm 0.00 in0.0 mm 0.00 in0.0 mm
02:30 PM 69.3°F20.7°C 19.7°F-6.8°C 15% 1.6 mph ESE2.6 kmh ESE 6.9 mph11.1 kmh 29.61 in1002.7 mb 0.00 in0.0 mm 0.00 in0.0 mm 0.00 in0.0 mm
02:45 PM 69.4°F20.8°C 19.8°F-6.8°C 15% 6.0 mph SE9.7 kmh SE 9.8 mph15.8 kmh 29.61 in1002.7 mb 0.00 in0.0 mm 0.00 in0.0 mm 0.00 in0.0 mm
03:00 PM 69.3°F20.7°C 19.7°F-6.8°C 15% 6.9 mph SE11.1 kmh SE 9.2 mph14.8 kmh 29.59 in1002.0 mb 0.00 in0.0 mm 0.00 in0.0 mm 0.00 in0.0 mm
03:15 PM 69.4°F20.8°C 19.8°F-6.8°C 15% 5.4 mph ESE8.7 kmh ESE 10.7 mph17.2 kmh 29.59 in1002.0 mb 0.00 in0.0 mm 0.00 in0.0 mm 0.00 in0.0 mm
03:30 PM 69.4°F20.8°C 19.8°F-6.8°C 15% 6.0 mph SE9.7 kmh SE 8.3 mph13.4 kmh 29.59 in1002.0 mb 0.00 in0.0 mm 0.00 in0.0 mm 0.00 in0.0 mm
03:45 PM 69.3°F20.7°C 19.7°F-6.8°C 15% 2.2 mph SE3.5 kmh SE 7.6 mph12.2 kmh 29.59 in1002.0 mb 0.00 in0.0 mm 0.00 in0.0 mm 0.00 in0.0 mm
04:00 PM 69.8°F21.0°C 20.1°F-6.6°C 15% 4.5 mph SE7.2 kmh SE 8.3 mph13.4 kmh 29.58 in1001.7 mb 0.00 in0.0 mm 0.00 in0.0 mm 0.00 in0.0 mm
04:15 PM 69.4°F20.8°C 19.8°F-6.8°C 15% 4.5 mph SE7.2 kmh SE 8.3 mph13.4 kmh 29.59 in1002.0 mb 0.00 in0.0 mm 0.00 in0.0 mm 0.00 in0.0 mm
04:30 PM 69.4°F20.8°C 19.8°F-6.8°C 15% 5.4 mph SE8.7 kmh SE 8.3 mph13.4 kmh 29.58 in1001.7 mb 0.00 in0.0 mm 0.00 in0.0 mm 0.00 in0.0 mm
04:45 PM 69.3°F20.7°C 19.7°F-6.8°C 15% 3.8 mph SE6.1 kmh SE 6.9 mph11.1 kmh 29.58 in1001.7 mb 0.00 in0.0 mm 0.00 in0.0 mm 0.00 in0.0 mm
05:00 PM 68.7°F20.4°C 19.2°F-7.1°C 15% 5.4 mph SE8.7 kmh SE 8.3 mph13.4 kmh 29.58 in1001.7 mb 0.00 in0.0 mm 0.00 in0.0 mm 0.00 in0.0 mm
05:15 PM 68.4°F20.2°C 19.0°F-7.2°C 15% 4.5 mph SE7.2 kmh SE 10.7 mph17.2 kmh 29.58 in1001.7 mb 0.00 in0.0 mm 0.00 in0.0 mm 0.00 in0.0 mm
05:30 PM 68.0°F20.0°C 25.5°F-3.6°C 20% 3.8 mph SE6.1 kmh SE 7.6 mph12.2 kmh 29.57 in1001.4 mb 0.00 in0.0 mm 0.00 in0.0 mm 0.00 in0.0 mm
05:45 PM 67.3°F19.6°C 24.9°F-3.9°C 20% 3.8 mph SE6.1 kmh SE 7.6 mph12.2 kmh 29.58 in1001.7 mb 0.00 in0.0 mm 0.00 in0.0 mm 0.00 in0.0 mm
06:00 PM 66.6°F19.2°C 24.3°F-4.3°C 20% Calm Calm 2.2 mph3.5 kmh 29.58 in1001.7 mb 0.00 in0.0 mm 0.00 in0.0 mm 0.00 in0.0 mm
06:15 PM 64.6°F18.1°C 23.8°F-4.6°C 21% Calm Calm 2.2 mph3.5 kmh 29.59 in1002.0 mb 0.00 in0.0 mm 0.00 in0.0 mm 0.00 in0.0 mm
06:30 PM 62.8°F17.1°C 22.3°F-5.4°C 21% 0.7 mph E1.1 kmh E 2.2 mph3.5 kmh 29.59 in1002.0 mb 0.00 in0.0 mm 0.00 in0.0 mm 0.00 in0.0 mm
06:45 PM 61.2°F16.2°C 24.1°F-4.4°C 24% 0.7 mph NE1.1 kmh NE 3.1 mph5.0 kmh 29.58 in1001.7 mb 0.00 in0.0 mm 0.00 in0.0 mm 0.00 in0.0 mm
07:00 PM 60.3°F15.7°C 23.3°F-4.8°C 24% 2.2 mph NNW3.5 kmh NNW 3.1 mph5.0 kmh 29.59 in1002.0 mb 0.00 in0.0 mm 0.00 in0.0 mm 0.00 in0.0 mm
07:15 PM 59.9°F15.5°C 23.0°F-5.0°C 24% 0.7 mph NNW1.1 kmh NNW 3.8 mph6.1 kmh 29.59 in1002.0 mb 0.00 in0.0 mm 0.00 in0.0 mm 0.00 in0.0 mm
07:30 PM 59.2°F15.1°C 24.3°F-4.3°C 26% 2.2 mph NW3.5 kmh NW 3.8 mph6.1 kmh 29.59 in1002.0 mb 0.00 in0.0 mm 0.00 in0.0 mm 0.00 in0.0 mm
07:45 PM 57.7°F14.3°C 26.5°F-3.1°C 30% 0.7 mph NW1.1 kmh NW 3.1 mph5.0 kmh 29.60 in1002.4 mb 0.00 in0.0 mm 0.00 in0.0 mm 0.00 in0.0 mm
08:00 PM 56.5°F13.6°C 25.4°F-3.7°C 30% Calm Calm 0.7 mph1.1 kmh 29.61 in1002.7 mb 0.00 in0.0 mm 0.00 in0.0 mm 0.00 in0.0 mm
08:15 PM 55.6°F13.1°C 25.4°F-3.7°C 31% 0.7 mph NW1.1 kmh NW 1.6 mph2.6 kmh 29.61 in1002.7 mb 0.00 in0.0 mm 0.00 in0.0 mm 0.00 in0.0 mm
08:30 PM 54.9°F12.7°C 24.8°F-4.0°C 31% 0.7 mph E1.1 kmh E 2.2 mph3.5 kmh 29.63 in1003.4 mb 0.00 in0.0 mm 0.00 in0.0 mm 0.00 in0.0 mm
08:45 PM 54.0°F12.2°C 24.0°F-4.4°C 31% Calm Calm 1.6 mph2.6 kmh 29.63 in1003.4 mb 0.00 in0.0 mm 0.00 in0.0 mm 0.00 in0.0 mm
09:00 PM 53.1°F11.7°C 24.0°F-4.4°C 32% 0.7 mph N1.1 kmh N 1.6 mph2.6 kmh 29.63 in1003.4 mb 0.00 in0.0 mm 0.00 in0.0 mm 0.00 in0.0 mm
09:15 PM 52.5°F11.4°C 25.7°F-3.5°C 35% Calm Calm 1.6 mph2.6 kmh 29.64 in1003.7 mb 0.00 in0.0 mm 0.00 in0.0 mm 0.00 in0.0 mm
09:30 PM 52.0°F11.1°C 25.9°F-3.4°C 36% Calm Calm 1.6 mph2.6 kmh 29.65 in1004.1 mb 0.00 in0.0 mm 0.00 in0.0 mm 0.00 in0.0 mm
09:45 PM 51.4°F10.8°C 26.1°F-3.3°C 37% Calm Calm 1.6 mph2.6 kmh 29.66 in1004.4 mb 0.00 in0.0 mm 0.00 in0.0 mm 0.00 in0.0 mm
10:00 PM 50.5°F10.3°C 25.9°F-3.4°C 38% Calm Calm 0.7 mph1.1 kmh 29.66 in1004.4 mb 0.00 in0.0 mm 0.00 in0.0 mm 0.00 in0.0 mm
10:15 PM 49.6°F9.8°C 25.7°F-3.5°C 39% Calm Calm 1.6 mph2.6 kmh 29.67 in1004.7 mb 0.00 in0.0 mm 0.00 in0.0 mm 0.00 in0.0 mm
10:30 PM 48.9°F9.4°C 25.7°F-3.5°C 40% Calm Calm 0.7 mph1.1 kmh 29.67 in1004.7 mb 0.00 in0.0 mm 0.00 in0.0 mm 0.00 in0.0 mm
10:45 PM 48.4°F9.1°C 25.8°F-3.4°C 41% 0.7 mph ENE1.1 kmh ENE 1.6 mph2.6 kmh 29.68 in1005.1 mb 0.00 in0.0 mm 0.00 in0.0 mm 0.00 in0.0 mm
11:00 PM 47.8°F8.8°C 25.3°F-3.7°C 41% Calm Calm 1.6 mph2.6 kmh 29.68 in1005.1 mb 0.00 in0.0 mm 0.00 in0.0 mm 0.00 in0.0 mm
11:15 PM 47.7°F8.7°C 25.7°F-3.5°C 42% Calm Calm 0.7 mph1.1 kmh 29.68 in1005.1 mb 0.00 in0.0 mm 0.00 in0.0 mm 0.00 in0.0 mm
11:30 PM 46.9°F8.3°C 25.1°F-3.8°C 42% 0.7 mph W1.1 kmh W 2.2 mph3.5 kmh 29.68 in1005.1 mb 0.00 in0.0 mm 0.00 in0.0 mm 0.00 in0.0 mm
11:45 PM 46.6°F8.1°C 24.7°F-4.1°C 42% Calm Calm 1.6 mph2.6 kmh 29.68 in1005.1 mb 0.00 in0.0 mm 0.00 in0.0 mm 0.00 in0.0 mm